createdAt,value
2022-08-22T00:01:22.265Z,100.00
2022-08-22T00:02:48.934Z,100.00
2022-08-22T00:04:29.537Z,100.00
2022-08-22T00:07:20.278Z,100.00
2022-08-22T00:10:43.147Z,100.00
2022-08-22T00:13:39.410Z,100.00
2022-08-22T00:16:39.330Z,100.00
2022-08-22T00:19:45.273Z,100.00
2022-08-22T00:22:55.976Z,100.00
2022-08-22T00:25:42.910Z,100.00
2022-08-22T00:28:46.975Z,100.00
2022-08-22T00:32:05.788Z,100.00
2022-08-22T00:35:14.902Z,100.00
2022-08-22T00:38:32.423Z,100.00
2022-08-22T00:41:28.912Z,100.00
2022-08-22T00:44:37.695Z,100.00
2022-08-22T00:47:27.483Z,100.00
2022-08-22T00:51:11.538Z,100.00
2022-08-22T00:54:17.734Z,100.00
2022-08-22T00:57:46.020Z,100.00
2022-08-22T01:00:43.636Z,100.00
2022-08-22T01:03:48.825Z,100.00
2022-08-22T01:06:47.750Z,100.00
2022-08-22T01:10:20.068Z,100.00
2022-08-22T01:13:26.223Z,100.00
2022-08-22T01:16:32.769Z,100.00
2022-08-22T01:19:47.319Z,100.00
2022-08-22T01:22:55.941Z,100.00
2022-08-22T01:26:20.029Z,100.00
2022-08-22T01:29:38.240Z,100.00
2022-08-22T01:32:31.661Z,100.00
2022-08-22T01:35:33.267Z,100.00
2022-08-22T01:38:41.839Z,100.00
2022-08-22T01:41:44.418Z,100.00
2022-08-22T01:44:34.296Z,100.00
2022-08-22T01:47:31.513Z,100.00
2022-08-22T01:50:36.452Z,100.00
2022-08-22T01:53:36.814Z,100.00
2022-08-22T01:56:25.855Z,100.00
2022-08-22T01:59:33.829Z,100.00
2022-08-22T02:02:32.060Z,100.00
2022-08-22T02:05:23.659Z,100.00
2022-08-22T02:08:24.467Z,100.00
2022-08-22T02:11:40.925Z,100.00
2022-08-22T02:14:41.748Z,100.00
2022-08-22T02:17:32.860Z,100.00
2022-08-22T02:20:25.169Z,100.00
2022-08-22T02:23:22.664Z,100.00
2022-08-22T02:26:25.912Z,100.00
2022-08-22T02:29:21.421Z,100.00
2022-08-22T02:32:19.827Z,100.00
2022-08-22T02:35:20.560Z,100.00
2022-08-22T02:37:59.577Z,100.00
2022-08-22T02:40:41.673Z,100.00
2022-08-22T02:43:29.206Z,100.00
2022-08-22T02:46:22.999Z,100.00
2022-08-22T02:49:11.732Z,100.00
2022-08-22T02:52:13.263Z,100.00
2022-08-22T02:55:08.870Z,100.00
2022-08-22T02:57:40.271Z,100.00
2022-08-22T03:00:32.253Z,100.00
2022-08-22T03:02:59.417Z,100.00
2022-08-22T03:05:40.178Z,100.00
2022-08-22T03:08:30.588Z,100.00
2022-08-22T03:11:03.116Z,100.00
2022-08-22T03:13:40.131Z,100.00
2022-08-22T03:16:16.419Z,100.00
2022-08-22T03:18:56.532Z,100.00
2022-08-22T03:21:41.175Z,100.00
2022-08-22T03:24:32.770Z,100.00
2022-08-22T03:27:32.452Z,100.00
2022-08-22T03:30:17.659Z,100.00
2022-08-22T03:32:59.431Z,100.00
2022-08-22T03:35:39.192Z,100.00
2022-08-22T03:38:31.548Z,100.00
2022-08-22T03:41:25.927Z,100.00
2022-08-22T03:44:11.892Z,100.00
2022-08-22T03:47:00.204Z,100.00
2022-08-22T03:49:32.453Z,100.00
2022-08-22T03:52:24.480Z,100.00
2022-08-22T03:55:14.036Z,100.00
2022-08-22T03:58:27.937Z,100.00
2022-08-22T04:01:18.858Z,100.00
2022-08-22T04:04:10.585Z,100.00
2022-08-22T04:06:59.032Z,100.00
2022-08-22T04:09:32.467Z,100.00
2022-08-22T04:12:13.579Z,100.00
2022-08-22T04:14:56.390Z,100.00
2022-08-22T04:17:53.166Z,100.00
2022-08-22T04:20:49.310Z,100.00
2022-08-22T04:23:31.093Z,100.00
2022-08-22T04:26:12.358Z,100.00
2022-08-22T04:28:57.048Z,100.00
2022-08-22T04:31:29.789Z,100.00
2022-08-22T04:34:11.429Z,100.00
2022-08-22T04:36:45.939Z,100.00
2022-08-22T04:39:23.194Z,100.00
2022-08-22T04:42:31.195Z,100.00
2022-08-22T04:45:04.844Z,100.00
2022-08-22T04:47:40.274Z,100.00
2022-08-22T04:50:15.843Z,100.00
2022-08-22T04:53:23.526Z,100.00
2022-08-22T04:56:15.090Z,100.00
2022-08-22T04:58:56.122Z,100.00
2022-08-22T05:01:39.346Z,100.00
2022-08-22T05:04:12.628Z,100.00
2022-08-22T05:06:46.432Z,100.00
2022-08-22T05:09:18.847Z,100.00
2022-08-22T05:11:52.643Z,100.00
2022-08-22T05:14:33.670Z,100.00
2022-08-22T05:17:02.295Z,100.00
2022-08-22T05:19:34.704Z,100.00
2022-08-22T05:22:02.931Z,100.00
2022-08-22T05:24:36.043Z,100.00
2022-08-22T05:27:11.311Z,100.00
2022-08-22T05:29:44.241Z,100.00
2022-08-22T05:32:27.294Z,100.00
2022-08-22T05:34:55.876Z,100.00
2022-08-22T05:38:01.240Z,100.00
2022-08-22T05:40:31.386Z,100.00
2022-08-22T05:42:58.356Z,100.00
2022-08-22T05:45:27.252Z,100.00
2022-08-22T05:48:00.025Z,100.00
2022-08-22T05:50:38.360Z,100.00
2022-08-22T05:53:09.124Z,100.00
2022-08-22T05:55:47.845Z,100.00
2022-08-22T05:58:26.444Z,100.00
2022-08-22T06:01:23.879Z,100.00
2022-08-22T06:04:02.433Z,100.00
2022-08-22T06:06:31.638Z,100.00
2022-08-22T06:09:03.902Z,100.00
2022-08-22T06:11:40.764Z,100.00
2022-08-22T06:14:29.924Z,100.00
2022-08-22T06:17:11.766Z,100.00
2022-08-22T06:19:46.032Z,100.00
2022-08-22T06:22:25.951Z,100.00
2022-08-22T06:24:57.662Z,100.00
2022-08-22T06:27:31.085Z,100.00
2022-08-22T06:30:02.711Z,100.00
2022-08-22T06:32:58.847Z,100.00
2022-08-22T06:35:55.412Z,100.00
2022-08-22T06:38:33.096Z,100.00
2022-08-22T06:41:06.757Z,100.00
2022-08-22T06:43:43.389Z,100.00
2022-08-22T06:46:11.218Z,100.00
2022-08-22T06:48:38.136Z,100.00
2022-08-22T06:51:08.208Z,100.00
2022-08-22T06:53:47.754Z,100.00
2022-08-22T06:56:23.236Z,100.00
2022-08-22T06:58:56.979Z,100.00
2022-08-22T07:01:27.574Z,100.00
2022-08-22T07:03:59.059Z,100.00
2022-08-22T07:06:33.864Z,100.00
2022-08-22T07:09:00.697Z,100.00
2022-08-22T07:11:38.144Z,100.00
2022-08-22T07:14:11.516Z,100.00
2022-08-22T07:16:55.293Z,100.00
2022-08-22T07:19:47.107Z,92.50
2022-08-22T07:22:23.232Z,89.91
2022-08-22T07:24:57.123Z,95.25
2022-08-22T07:27:45.063Z,72.68
2022-08-22T07:30:17.860Z,69.70
2022-08-22T07:33:25.985Z,83.87
2022-08-22T07:36:31.034Z,70.15
2022-08-22T07:39:44.167Z,61.87
2022-08-22T07:42:16.597Z,87.44
2022-08-22T07:44:48.727Z,83.88
2022-08-22T07:47:26.424Z,66.09
2022-08-22T07:50:04.724Z,59.90
2022-08-22T07:52:40.579Z,54.92
2022-08-22T07:55:22.676Z,47.75
2022-08-22T07:57:58.866Z,52.76
2022-08-22T08:00:28.886Z,68.91
2022-08-22T08:03:03.084Z,60.60
2022-08-22T08:05:32.835Z,58.06
2022-08-22T08:08:02.116Z,65.11
2022-08-22T08:10:36.453Z,51.10
2022-08-22T08:13:09.603Z,54.91
2022-08-22T08:15:40.466Z,52.08
2022-08-22T08:18:19.404Z,48.44
2022-08-22T08:20:54.854Z,46.42
2022-08-22T08:23:23.498Z,46.95
2022-08-22T08:26:11.485Z,32.01
2022-08-22T08:28:50.431Z,32.03
2022-08-22T08:31:31.959Z,41.49
2022-08-22T08:34:22.527Z,33.00
2022-08-22T08:36:52.326Z,44.12
2022-08-22T08:39:35.069Z,35.86
2022-08-22T08:42:12.183Z,34.01
2022-08-22T08:44:57.024Z,31.58
2022-08-22T08:47:44.084Z,42.34
2022-08-22T08:50:29.050Z,42.72
2022-08-22T08:53:24.198Z,32.69
2022-08-22T08:55:57.650Z,28.31
2022-08-22T08:59:00.280Z,26.34
2022-08-22T09:01:56.550Z,32.70
2022-08-22T09:04:24.342Z,36.30
2022-08-22T09:07:01.372Z,32.95
2022-08-22T09:09:45.746Z,26.36
2022-08-22T09:12:24.233Z,27.56
2022-08-22T09:15:19.660Z,27.26
2022-08-22T09:18:19.850Z,29.77
2022-08-22T09:21:30.580Z,23.93
2022-08-22T09:24:07.277Z,29.07
2022-08-22T09:26:57.134Z,28.46
2022-08-22T09:29:51.486Z,24.42
2022-08-22T09:32:28.728Z,25.80
2022-08-22T09:35:08.000Z,25.63
2022-08-22T09:37:53.286Z,27.26
2022-08-22T09:40:29.087Z,32.86
2022-08-22T09:43:12.656Z,31.68
2022-08-22T09:46:01.852Z,29.29
2022-08-22T09:48:57.806Z,31.02
2022-08-22T09:51:38.600Z,42.87
2022-08-22T09:54:07.915Z,41.23
2022-08-22T09:56:35.506Z,33.59
2022-08-22T09:59:18.682Z,33.20
2022-08-22T10:01:56.166Z,31.00
2022-08-22T10:04:48.401Z,33.78
2022-08-22T10:07:36.244Z,38.88
2022-08-22T10:10:35.934Z,35.28
2022-08-22T10:13:23.768Z,31.62
2022-08-22T10:15:56.316Z,29.63
2022-08-22T10:18:31.132Z,28.19
2022-08-22T10:21:06.638Z,21.53
2022-08-22T10:23:34.123Z,21.85
2022-08-22T10:26:38.665Z,18.96
2022-08-22T10:29:43.258Z,22.24
2022-08-22T10:32:34.301Z,26.26
2022-08-22T10:35:34.425Z,25.59
2022-08-22T10:38:05.872Z,29.44
2022-08-22T10:40:39.731Z,25.98
2022-08-22T10:43:16.532Z,29.51
2022-08-22T10:45:46.843Z,29.50
2022-08-22T10:48:35.589Z,27.41
2022-08-22T10:51:22.251Z,22.40
2022-08-22T10:53:58.440Z,21.23
2022-08-22T10:56:32.095Z,26.15
2022-08-22T10:59:07.888Z,33.38
2022-08-22T11:01:47.122Z,45.89
2022-08-22T11:04:39.047Z,48.65
2022-08-22T11:07:38.135Z,59.58
2022-08-22T11:10:34.950Z,76.29
2022-08-22T11:13:12.778Z,70.08
2022-08-22T11:15:57.114Z,71.16
2022-08-22T11:19:01.859Z,70.26
2022-08-22T11:21:47.193Z,75.82
2022-08-22T11:24:56.761Z,77.36
2022-08-22T11:27:38.227Z,80.96
2022-08-22T11:30:18.326Z,86.04
2022-08-22T11:33:13.741Z,89.94
2022-08-22T11:36:11.267Z,84.54
2022-08-22T11:39:13.829Z,85.26
2022-08-22T11:42:05.494Z,89.31
2022-08-22T11:44:55.608Z,90.48
2022-08-22T11:47:30.263Z,90.25
2022-08-22T11:50:05.577Z,88.43
2022-08-22T11:53:18.709Z,86.09
2022-08-22T11:56:18.011Z,87.33
2022-08-22T11:58:57.607Z,90.09
2022-08-22T12:01:42.008Z,89.95
2022-08-22T12:04:20.278Z,87.10
2022-08-22T12:07:01.247Z,82.42
2022-08-22T12:09:51.865Z,82.29
2022-08-22T12:12:35.860Z,80.43
2022-08-22T12:15:23.365Z,79.13
2022-08-22T12:18:01.014Z,84.02
2022-08-22T12:21:02.470Z,83.27
2022-08-22T12:23:52.821Z,90.06
2022-08-22T12:26:43.626Z,91.39
2022-08-22T12:30:04.548Z,89.06
2022-08-22T12:32:50.657Z,85.59
2022-08-22T12:35:29.950Z,83.43
2022-08-22T12:38:28.307Z,77.11
2022-08-22T12:41:28.064Z,79.87
2022-08-22T12:44:36.992Z,81.33
2022-08-22T12:47:17.312Z,82.46
2022-08-22T12:50:13.110Z,85.91
2022-08-22T12:53:20.220Z,85.08
2022-08-22T12:56:26.517Z,79.45
2022-08-22T12:59:10.974Z,79.65
2022-08-22T13:01:49.269Z,82.11
2022-08-22T13:04:33.072Z,79.61
2022-08-22T13:07:34.632Z,78.84
2022-08-22T13:10:31.016Z,82.17
2022-08-22T13:12:59.825Z,81.59
2022-08-22T13:15:53.502Z,80.60
2022-08-22T13:18:31.192Z,80.64
2022-08-22T13:21:05.151Z,78.03
2022-08-22T13:23:53.347Z,75.70
2022-08-22T13:26:33.952Z,73.45
2022-08-22T13:29:25.855Z,80.14
2022-08-22T13:32:00.157Z,81.50
2022-08-22T13:34:43.616Z,83.23
2022-08-22T13:37:25.905Z,83.11
2022-08-22T13:40:01.787Z,83.37
2022-08-22T13:42:40.109Z,86.86
2022-08-22T13:45:18.698Z,85.65
2022-08-22T13:47:56.856Z,85.19
2022-08-22T13:50:35.809Z,82.91
2022-08-22T13:53:10.539Z,81.90
2022-08-22T13:55:49.490Z,80.01
2022-08-22T13:58:40.278Z,77.08
2022-08-22T14:01:19.496Z,78.01
2022-08-22T14:03:58.459Z,81.61
2022-08-22T14:06:41.329Z,83.48
2022-08-22T14:09:31.505Z,83.68
2022-08-22T14:12:19.760Z,84.19
2022-08-22T14:14:54.299Z,85.08
2022-08-22T14:17:28.093Z,82.02
2022-08-22T14:20:02.395Z,81.89
2022-08-22T14:22:35.013Z,82.68
2022-08-22T14:25:07.515Z,82.70
2022-08-22T14:27:39.758Z,83.48
2022-08-22T14:30:13.020Z,77.01
2022-08-22T14:32:48.065Z,79.46
2022-08-22T14:35:37.576Z,81.17
2022-08-22T14:38:35.532Z,82.52
2022-08-22T14:41:28.662Z,79.07
2022-08-22T14:44:28.031Z,79.28
2022-08-22T14:47:04.171Z,81.20
2022-08-22T14:49:49.761Z,78.79
2022-08-22T14:52:33.466Z,78.41
2022-08-22T14:55:11.907Z,81.10
2022-08-22T14:57:48.417Z,83.04
2022-08-22T15:00:28.635Z,81.69
2022-08-22T15:03:12.732Z,84.27
2022-08-22T15:05:50.527Z,84.48
2022-08-22T15:08:34.669Z,87.77
2022-08-22T15:11:10.542Z,82.10
2022-08-22T15:13:42.192Z,85.34
2022-08-22T15:16:24.497Z,84.80
2022-08-22T15:18:53.353Z,86.03
2022-08-22T15:21:30.104Z,85.78
2022-08-22T15:24:12.352Z,80.31
2022-08-22T15:26:50.162Z,87.03
2022-08-22T15:29:28.988Z,89.69
2022-08-22T15:32:00.948Z,89.64
2022-08-22T15:34:35.774Z,92.14
2022-08-22T15:37:25.336Z,91.75
2022-08-22T15:40:08.214Z,91.79
2022-08-22T15:42:41.938Z,92.18
2022-08-22T15:45:36.051Z,90.45
2022-08-22T15:48:09.510Z,93.17
2022-08-22T15:50:56.842Z,91.83
2022-08-22T15:53:34.103Z,94.50
2022-08-22T15:56:05.079Z,89.93
2022-08-22T15:58:37.088Z,90.88
2022-08-22T16:01:19.108Z,92.12
2022-08-22T16:04:12.412Z,92.11
2022-08-22T16:06:56.499Z,92.49
2022-08-22T16:09:38.295Z,93.42
2022-08-22T16:12:11.783Z,94.30
2022-08-22T16:14:41.433Z,94.64
2022-08-22T16:17:25.026Z,94.32
2022-08-22T16:20:17.496Z,94.64
2022-08-22T16:22:58.020Z,93.18
2022-08-22T16:25:46.667Z,92.21
2022-08-22T16:28:31.631Z,93.59
2022-08-22T16:31:24.720Z,93.09
2022-08-22T16:33:53.819Z,93.67
2022-08-22T16:36:41.316Z,93.17
2022-08-22T16:39:49.769Z,94.80
2022-08-22T16:42:18.177Z,95.09
2022-08-22T16:45:04.583Z,95.84
2022-08-22T16:47:40.103Z,94.89
2022-08-22T16:50:23.987Z,96.37
2022-08-22T16:53:01.607Z,100.00
2022-08-22T16:55:35.715Z,100.00
2022-08-22T16:58:14.770Z,100.00
2022-08-22T17:01:03.358Z,100.00
2022-08-22T17:03:32.732Z,100.00
2022-08-22T17:06:33.797Z,100.00
2022-08-22T17:09:30.616Z,100.00
2022-08-22T17:12:12.496Z,100.00
2022-08-22T17:15:06.937Z,100.00
2022-08-22T17:17:52.236Z,100.00
2022-08-22T17:20:55.870Z,100.00
2022-08-22T17:23:37.461Z,100.00
2022-08-22T17:26:41.049Z,100.00
2022-08-22T17:29:25.858Z,100.00
2022-08-22T17:32:05.436Z,100.00
2022-08-22T17:34:56.869Z,100.00
2022-08-22T17:37:42.561Z,100.00
2022-08-22T17:40:26.450Z,100.00
2022-08-22T17:43:10.117Z,100.00
2022-08-22T17:45:57.732Z,100.00
2022-08-22T17:48:26.899Z,100.00
2022-08-22T17:51:16.993Z,100.00
2022-08-22T17:53:58.867Z,100.00
2022-08-22T17:56:32.583Z,100.00
2022-08-22T17:59:09.549Z,100.00
2022-08-22T18:01:46.206Z,100.00
2022-08-22T18:04:23.280Z,100.00
2022-08-22T18:07:05.273Z,100.00
2022-08-22T18:09:39.172Z,100.00
2022-08-22T18:12:17.075Z,100.00
2022-08-22T18:14:59.733Z,100.00
2022-08-22T18:17:41.358Z,100.00
2022-08-22T18:20:17.142Z,100.00
2022-08-22T18:22:50.830Z,100.00
2022-08-22T18:25:17.341Z,100.00
2022-08-22T18:27:52.303Z,100.00
2022-08-22T18:30:30.817Z,100.00
2022-08-22T18:33:14.671Z,100.00
2022-08-22T18:35:54.437Z,100.00
2022-08-22T18:38:25.116Z,100.00
2022-08-22T18:41:03.697Z,100.00
2022-08-22T18:43:38.325Z,100.00
2022-08-22T18:46:43.326Z,100.00
2022-08-22T18:49:19.534Z,100.00
2022-08-22T18:52:05.294Z,100.00
2022-08-22T18:54:50.312Z,100.00
2022-08-22T18:57:42.662Z,100.00
2022-08-22T19:00:20.732Z,100.00
2022-08-22T19:03:26.116Z,100.00
2022-08-22T19:06:00.602Z,100.00
2022-08-22T19:08:46.330Z,100.00
2022-08-22T19:11:50.890Z,100.00
2022-08-22T19:14:29.112Z,100.00
2022-08-22T19:17:00.455Z,100.00
2022-08-22T19:20:15.524Z,100.00
2022-08-22T19:22:51.052Z,100.00
2022-08-22T19:25:20.551Z,100.00
2022-08-22T19:28:09.449Z,100.00
2022-08-22T19:30:48.432Z,100.00
2022-08-22T19:33:39.884Z,100.00
2022-08-22T19:36:12.816Z,100.00
2022-08-22T19:38:58.203Z,100.00
2022-08-22T19:41:52.509Z,100.00
2022-08-22T19:44:23.335Z,100.00
2022-08-22T19:47:10.252Z,100.00
2022-08-22T19:49:43.628Z,100.00
2022-08-22T19:52:13.060Z,100.00
2022-08-22T19:54:52.219Z,100.00
2022-08-22T19:57:44.985Z,100.00
2022-08-22T20:00:36.237Z,100.00
2022-08-22T20:03:43.393Z,100.00
2022-08-22T20:06:51.664Z,100.00
2022-08-22T20:09:49.267Z,100.00
2022-08-22T20:12:31.379Z,100.00
2022-08-22T20:15:22.983Z,100.00
2022-08-22T20:20:59.245Z,100.00
2022-08-22T20:23:31.534Z,100.00
2022-08-22T20:26:03.449Z,100.00
2022-08-22T20:28:50.741Z,100.00
2022-08-22T20:31:26.941Z,100.00
2022-08-22T20:34:00.455Z,100.00
2022-08-22T20:36:30.589Z,100.00
2022-08-22T20:39:06.561Z,100.00
2022-08-22T20:41:43.803Z,100.00
2022-08-22T20:44:17.595Z,100.00
2022-08-22T20:47:11.248Z,100.00
2022-08-22T20:49:47.316Z,100.00
2022-08-22T20:52:19.811Z,100.00
2022-08-22T20:54:57.420Z,100.00
2022-08-22T20:57:24.091Z,100.00
2022-08-22T21:00:10.136Z,100.00
2022-08-22T21:03:00.443Z,100.00
2022-08-22T21:05:47.286Z,100.00
2022-08-22T21:08:36.669Z,100.00
2022-08-22T21:11:40.947Z,100.00
2022-08-22T21:14:34.816Z,100.00
2022-08-22T21:17:34.247Z,100.00
2022-08-22T21:20:23.007Z,100.00
2022-08-22T21:23:14.714Z,100.00
2022-08-22T21:26:08.287Z,100.00
2022-08-22T21:29:13.064Z,100.00
2022-08-22T21:32:23.396Z,100.00
2022-08-22T21:35:33.295Z,100.00
2022-08-22T21:38:22.887Z,100.00
2022-08-22T21:41:14.260Z,100.00
2022-08-22T21:44:27.655Z,100.00
2022-08-22T21:47:32.143Z,100.00
2022-08-22T21:50:23.141Z,100.00
2022-08-22T21:53:24.685Z,100.00
2022-08-22T21:56:16.634Z,100.00
2022-08-22T21:59:26.002Z,100.00
2022-08-22T22:02:36.422Z,100.00
2022-08-22T22:05:23.782Z,100.00
2022-08-22T22:08:11.221Z,100.00
2022-08-22T22:11:06.151Z,100.00
2022-08-22T22:13:55.579Z,100.00
2022-08-22T22:16:42.468Z,100.00
2022-08-22T22:19:29.335Z,100.00
2022-08-22T22:22:18.497Z,100.00
2022-08-22T22:25:05.679Z,100.00
2022-08-22T22:28:21.392Z,100.00
2022-08-22T22:31:09.316Z,100.00
2022-08-22T22:33:58.611Z,100.00
2022-08-22T22:36:46.426Z,100.00
2022-08-22T22:39:34.808Z,100.00
2022-08-22T22:42:23.780Z,100.00
2022-08-22T22:45:11.038Z,100.00
2022-08-22T22:47:58.076Z,100.00
2022-08-22T22:50:45.064Z,100.00
2022-08-22T22:53:38.551Z,100.00
2022-08-22T22:56:27.423Z,100.00
2022-08-22T22:59:16.289Z,100.00
2022-08-22T23:02:16.375Z,100.00
2022-08-22T23:05:04.082Z,100.00
2022-08-22T23:07:51.004Z,100.00
2022-08-22T23:10:37.887Z,100.00
2022-08-22T23:13:24.764Z,100.00
2022-08-22T23:16:16.102Z,100.00
2022-08-22T23:19:08.496Z,100.00
2022-08-22T23:21:57.500Z,100.00
2022-08-22T23:24:44.527Z,100.00
2022-08-22T23:27:31.507Z,100.00
2022-08-22T23:30:18.360Z,100.00
2022-08-22T23:33:05.165Z,100.00
2022-08-22T23:35:59.403Z,100.00
2022-08-22T23:38:47.545Z,100.00
2022-08-22T23:41:36.283Z,100.00
2022-08-22T23:44:25.993Z,100.00
2022-08-22T23:47:14.319Z,100.00
2022-08-22T23:50:05.707Z,100.00
2022-08-22T23:52:53.211Z,100.00
2022-08-22T23:55:42.348Z,100.00
2022-08-22T23:58:29.184Z,100.00
